Time,TemperatureF,DewpointF,PressureIn,WindDirection,WindDirectionDegrees,WindSpeedMPH,WindSpeedGustMPH,Humidity,HourlyPrecipIn,Conditions,Clouds,dailyrainin,SoftwareType,DateUTC
2013-09-24 00:01:00,44.3,43.2,30.06,SE,132,0.0,0.0,96,0.00,,CLR,0.00,VWS V14.01,2013-09-24 04:01:00,
2013-09-24 00:02:00,44.3,43.2,30.06,SE,124,0.0,0.0,96,0.00,,CLR,0.00,VWS V14.01,2013-09-24 04:02:00,
2013-09-24 00:07:00,44.3,43.2,30.07,ESE,111,0.0,0.0,96,0.00,,CLR,0.00,VWS V14.01,2013-09-24 04:07:00,
2013-09-24 00:12:00,44.7,43.9,30.06,ESE,112,0.0,0.0,97,0.00,,CLR,0.00,VWS V14.01,2013-09-24 04:12:00,
2013-09-24 00:17:00,44.7,43.6,30.06,ESE,112,0.0,0.0,96,0.00,,CLR,0.00,VWS V14.01,2013-09-24 04:17:00,
2013-09-24 00:23:00,44.4,43.3,30.06,ESE,111,0.0,0.0,96,0.00,,CLR,0.00,VWS V14.01,2013-09-24 04:23:00,
2013-09-24 00:28:00,44.3,43.2,30.06,ESE,112,0.0,0.0,96,0.00,,CLR,0.00,VWS V14.01,2013-09-24 04:28:00,
2013-09-24 00:33:00,44.4,43.6,30.06,East,97,0.0,0.0,97,0.00,,CLR,0.00,VWS V14.01,2013-09-24 04:33:00,
2013-09-24 00:38:00,44.5,43.7,30.06,East,99,0.0,0.0,97,0.00,,CLR,0.00,VWS V14.01,2013-09-24 04:38:00,
2013-09-24 00:43:00,44.2,43.1,30.06,East,99,0.0,0.0,96,0.00,,CLR,0.00,VWS V14.01,2013-09-24 04:43:00,
2013-09-24 00:48:00,44.0,42.9,30.06,East,99,0.0,0.0,96,0.00,,CLR,0.00,VWS V14.01,2013-09-24 04:48:00,
2013-09-24 00:53:00,43.6,42.5,30.06,East,99,0.0,0.0,96,0.00,,CLR,0.00,VWS V14.01,2013-09-24 04:53:00,
2013-09-24 00:58:00,43.5,42.7,30.06,East,99,0.0,0.0,97,0.00,,CLR,0.00,VWS V14.01,2013-09-24 04:58:00,
2013-09-24 01:03:00,43.8,43.0,30.06,ESE,108,0.0,0.0,97,0.00,,CLR,0.00,VWS V14.01,2013-09-24 05:03:00,
2013-09-24 01:08:00,44.0,43.2,30.06,East,94,0.0,0.0,97,0.00,,CLR,0.00,VWS V14.01,2013-09-24 05:08:00,
2013-09-24 01:13:00,44.3,43.5,30.06,East,94,0.0,0.0,97,0.00,,CLR,0.00,VWS V14.01,2013-09-24 05:13:00,
2013-09-24 01:18:00,44.4,43.6,30.06,East,93,0.0,0.0,97,0.00,,CLR,0.00,VWS V14.01,2013-09-24 05:18:00,
2013-09-24 01:23:00,44.3,43.5,30.06,East,94,0.0,0.0,97,0.00,,CLR,0.00,VWS V14.01,2013-09-24 05:23:00,
2013-09-24 01:29:00,43.9,42.8,30.06,East,100,0.0,0.0,96,0.00,,CLR,0.00,VWS V14.01,2013-09-24 05:29:00,
2013-09-24 01:34:00,43.3,42.2,30.07,East,101,0.0,0.0,96,0.00,,CLR,0.00,VWS V14.01,2013-09-24 05:34:00,
2013-09-24 01:39:00,42.8,41.7,30.07,SE,127,0.0,0.0,96,0.00,,CLR,0.00,VWS V14.01,2013-09-24 05:39:00,
2013-09-24 01:44:00,43.3,42.5,30.07,East,89,0.0,0.0,97,0.00,,CLR,0.00,VWS V14.01,2013-09-24 05:44:00,
2013-09-24 01:49:00,44.0,43.2,30.07,East,101,0.0,0.0,97,0.00,,CLR,0.00,VWS V14.01,2013-09-24 05:49:00,
2013-09-24 01:54:00,44.7,43.9,30.07,East,101,0.0,0.0,97,0.00,,CLR,0.00,VWS V14.01,2013-09-24 05:54:00,
2013-09-24 01:59:00,45.1,44.0,30.07,East,101,0.0,0.0,96,0.00,,CLR,0.00,VWS V14.01,2013-09-24 05:59:00,
2013-09-24 02:04:00,45.3,43.7,30.07,East,100,0.0,0.0,94,0.00,,CLR,0.00,VWS V14.01,2013-09-24 06:04:00,
2013-09-24 02:09:00,44.9,43.0,30.07,East,100,0.0,0.0,93,0.00,,CLR,0.00,VWS V14.01,2013-09-24 06:09:00,
2013-09-24 02:14:00,44.3,42.1,30.07,ESE,113,0.0,0.0,92,0.00,,CLR,0.00,VWS V14.01,2013-09-24 06:14:00,
2013-09-24 02:19:00,43.1,41.2,30.07,ESE,112,0.0,0.0,93,0.00,,CLR,0.00,VWS V14.01,2013-09-24 06:19:00,
2013-09-24 02:24:00,42.7,41.4,30.07,ESE,122,0.0,0.0,95,0.00,,CLR,0.00,VWS V14.01,2013-09-24 06:24:00,
2013-09-24 02:30:00,42.9,41.8,30.07,ESE,121,0.0,0.0,96,0.00,,CLR,0.00,VWS V14.01,2013-09-24 06:30:00,
2013-09-24 02:35:00,43.3,42.2,30.07,ESE,110,0.0,0.0,96,0.00,,CLR,0.00,VWS V14.01,2013-09-24 06:35:00,
2013-09-24 02:40:00,43.3,42.2,30.07,ESE,110,0.0,0.0,96,0.00,,CLR,0.00,VWS V14.01,2013-09-24 06:40:00,
2013-09-24 02:45:00,43.6,42.5,30.07,NNE,12,0.0,0.0,96,0.00,,CLR,0.00,VWS V14.01,2013-09-24 06:45:00,
2013-09-24 02:50:00,44.1,43.0,30.07,NW,316,0.0,0.0,96,0.00,,CLR,0.00,VWS V14.01,2013-09-24 06:50:00,
2013-09-24 02:55:00,44.5,42.9,30.07,NNW,340,0.0,0.0,94,0.00,,CLR,0.00,VWS V14.01,2013-09-24 06:55:00,
2013-09-24 03:00:00,44.5,42.6,30.07,NE,40,0.0,0.0,93,0.00,,CLR,0.00,VWS V14.01,2013-09-24 07:00:00,
2013-09-24 03:05:00,44.3,42.1,30.07,NE,40,0.0,0.0,92,0.00,,CLR,0.00,VWS V14.01,2013-09-24 07:05:00,
2013-09-24 03:10:00,43.9,41.7,30.07,ESE,118,0.0,0.0,92,0.00,,CLR,0.00,VWS V14.01,2013-09-24 07:10:00,
2013-09-24 03:15:00,43.1,40.9,30.07,ESE,115,0.0,0.0,92,0.00,,CLR,0.00,VWS V14.01,2013-09-24 07:15:00,
2013-09-24 03:20:00,42.7,41.1,30.07,ESE,115,0.0,0.0,94,0.00,,CLR,0.00,VWS V14.01,2013-09-24 07:20:00,
2013-09-24 03:25:00,42.7,41.4,30.07,East,93,0.0,0.0,95,0.00,,CLR,0.00,VWS V14.01,2013-09-24 07:25:00,
2013-09-24 03:30:00,42.5,41.2,30.07,East,79,0.0,0.0,95,0.00,,CLR,0.00,VWS V14.01,2013-09-24 07:30:00,
2013-09-24 03:35:00,42.2,40.9,30.07,NE,34,0.0,0.0,95,0.00,,CLR,0.00,VWS V14.01,2013-09-24 07:35:00,
2013-09-24 03:40:00,42.6,41.5,30.07,NE,36,0.0,0.0,96,0.00,,CLR,0.00,VWS V14.01,2013-09-24 07:40:00,
2013-09-24 03:45:00,43.0,41.9,30.07,NE,34,0.0,0.0,96,0.00,,CLR,0.00,VWS V14.01,2013-09-24 07:45:00,
2013-09-24 03:50:00,42.9,41.6,30.07,NNE,29,0.0,0.0,95,0.00,,CLR,0.00,VWS V14.01,2013-09-24 07:50:00,
2013-09-24 03:55:00,42.6,41.0,30.07,ESE,122,0.0,0.0,94,0.00,,CLR,0.00,VWS V14.01,2013-09-24 07:55:00,
2013-09-24 04:00:00,42.0,40.4,30.07,ESE,122,0.0,0.0,94,0.00,,CLR,0.00,VWS V14.01,2013-09-24 08:00:00,
2013-09-24 04:05:00,42.0,40.7,30.07,ESE,122,0.0,0.0,95,0.00,,CLR,0.00,VWS V14.01,2013-09-24 08:05:00,
2013-09-24 04:10:00,41.9,40.6,30.08,ESE,122,0.0,0.0,95,0.00,,CLR,0.00,VWS V14.01,2013-09-24 08:10:00,
2013-09-24 04:15:00,42.2,41.1,30.08,ESE,122,0.0,0.0,96,0.00,,CLR,0.00,VWS V14.01,2013-09-24 08:15:00,
2013-09-24 04:20:00,42.7,41.6,30.08,NNW,338,0.0,0.0,96,0.00,,CLR,0.00,VWS V14.01,2013-09-24 08:20:00,
2013-09-24 04:25:00,43.2,41.9,30.08,NNW,337,0.0,0.0,95,0.00,,CLR,0.00,VWS V14.01,2013-09-24 08:25:00,
2013-09-24 04:30:00,43.4,41.8,30.08,NNW,337,0.0,0.0,94,0.00,,CLR,0.00,VWS V14.01,2013-09-24 08:30:00,
2013-09-24 04:35:00,42.4,40.0,30.08,SE,127,0.0,0.0,91,0.00,,CLR,0.00,VWS V14.01,2013-09-24 08:35:00,
2013-09-24 04:40:00,41.3,39.4,30.08,ESE,121,0.0,0.0,93,0.00,,CLR,0.00,VWS V14.01,2013-09-24 08:40:00,
2013-09-24 04:45:00,41.3,40.0,30.08,ESE,123,0.0,0.0,95,0.00,,CLR,0.00,VWS V14.01,2013-09-24 08:45:00,
2013-09-24 04:50:00,41.6,40.5,30.07,ESE,120,0.0,0.0,96,0.00,,CLR,0.00,VWS V14.01,2013-09-24 08:50:00,
2013-09-24 04:55:00,41.9,40.8,30.07,ESE,111,0.0,0.0,96,0.00,,CLR,0.00,VWS V14.01,2013-09-24 08:55:00,
2013-09-24 05:00:00,41.9,40.8,30.07,ESE,112,0.0,0.0,96,0.00,,CLR,0.00,VWS V14.01,2013-09-24 09:00:00,
2013-09-24 05:06:00,41.9,40.8,30.07,ESE,112,0.0,0.0,96,0.00,,CLR,0.00,VWS V14.01,2013-09-24 09:06:00,
2013-09-24 05:11:00,41.7,40.7,30.07,ESE,112,0.0,0.0,96,0.00,,CLR,0.00,VWS V14.01,2013-09-24 09:11:00,
2013-09-24 05:16:00,41.5,40.5,30.07,ESE,111,0.0,0.0,96,0.00,,CLR,0.00,VWS V14.01,2013-09-24 09:16:00,
2013-09-24 05:21:00,41.5,40.5,30.07,ESE,112,0.0,0.0,96,0.00,,CLR,0.00,VWS V14.01,2013-09-24 09:21:00,
2013-09-24 05:26:00,41.7,40.7,30.07,ESE,111,0.0,0.0,96,0.00,,CLR,0.00,VWS V14.01,2013-09-24 09:26:00,
2013-09-24 05:31:00,41.2,39.9,30.07,ESE,119,0.0,0.0,95,0.00,,CLR,0.00,VWS V14.01,2013-09-24 09:31:00,
2013-09-24 05:36:00,41.0,40.0,30.07,ESE,119,0.0,0.0,96,0.00,,CLR,0.00,VWS V14.01,2013-09-24 09:36:00,
2013-09-24 05:41:00,41.1,40.0,30.07,NNW,342,0.0,0.0,96,0.00,,CLR,0.00,VWS V14.01,2013-09-24 09:41:00,
2013-09-24 05:46:00,41.0,40.0,30.07,NNW,341,0.0,0.0,96,0.00,,CLR,0.00,VWS V14.01,2013-09-24 09:46:00,
2013-09-24 05:51:00,40.7,39.7,30.07,ESE,108,0.0,0.0,96,0.00,,CLR,0.00,VWS V14.01,2013-09-24 09:51:00,
2013-09-24 05:56:00,40.4,39.3,30.07,ESE,109,0.0,0.0,96,0.00,,CLR,0.00,VWS V14.01,2013-09-24 09:56:00,
2013-09-24 06:01:00,40.8,40.0,30.07,ESE,108,0.0,0.0,97,0.00,,CLR,0.00,VWS V14.01,2013-09-24 10:01:00,
2013-09-24 06:06:00,41.3,40.5,30.07,NW,317,0.0,0.0,97,0.00,,CLR,0.00,VWS V14.01,2013-09-24 10:06:00,
2013-09-24 06:12:00,41.4,40.6,30.07,NW,319,0.0,0.0,97,0.00,,CLR,0.00,VWS V14.01,2013-09-24 10:12:00,
2013-09-24 06:17:00,41.5,40.5,30.08,NW,319,0.0,0.0,96,0.00,,CLR,0.00,VWS V14.01,2013-09-24 10:17:00,
2013-09-24 06:22:00,41.5,40.5,30.08,NNW,330,0.0,0.0,96,0.00,,CLR,0.00,VWS V14.01,2013-09-24 10:22:00,
2013-09-24 06:27:00,41.4,40.3,30.08,NNW,330,0.0,0.0,96,0.00,,CLR,0.00,VWS V14.01,2013-09-24 10:27:00,
2013-09-24 06:32:00,41.4,40.3,30.08,NNW,329,0.0,0.0,96,0.00,,CLR,0.00,VWS V14.01,2013-09-24 10:32:00,
2013-09-24 06:37:00,41.4,40.3,30.08,NNW,330,0.0,0.0,96,0.00,,CLR,0.00,VWS V14.01,2013-09-24 10:37:00,
2013-09-24 06:42:00,41.3,40.2,30.08,ESE,119,0.0,0.0,96,0.00,,CLR,0.00,VWS V14.01,2013-09-24 10:42:00,
2013-09-24 06:47:00,40.6,39.3,30.08,ESE,121,0.0,0.0,95,0.00,,CLR,0.00,VWS V14.01,2013-09-24 10:47:00,
2013-09-24 06:52:00,40.1,38.8,30.08,ESE,121,0.0,0.0,95,0.00,,CLR,0.00,VWS V14.01,2013-09-24 10:52:00,
2013-09-24 06:57:00,40.3,39.2,30.08,ESE,115,0.0,0.0,96,0.00,,CLR,0.00,VWS V14.01,2013-09-24 10:57:00,
2013-09-24 07:02:00,40.5,39.5,30.08,ESE,115,0.0,0.0,96,0.00,,CLR,0.00,VWS V14.01,2013-09-24 11:02:00,
2013-09-24 07:07:00,40.4,39.3,30.08,ESE,115,0.0,0.0,96,0.00,,CLR,0.00,VWS V14.01,2013-09-24 11:07:00,
2013-09-24 07:12:00,40.5,39.7,30.08,ESE,117,0.0,0.0,97,0.00,,CLR,0.00,VWS V14.01,2013-09-24 11:12:00,
2013-09-24 07:17:00,41.2,40.4,30.08,ESE,115,0.0,0.0,97,0.00,,CLR,0.00,VWS V14.01,2013-09-24 11:17:00,
2013-09-24 07:22:00,41.9,41.1,30.08,NW,310,0.0,0.0,97,0.00,,CLR,0.00,VWS V14.01,2013-09-24 11:22:00,
2013-09-24 07:28:00,42.6,41.8,30.08,NW,308,0.0,0.0,97,0.00,,CLR,0.00,VWS V14.01,2013-09-24 11:28:00,
2013-09-24 07:33:00,42.3,41.0,30.08,SSE,148,0.0,0.0,95,0.00,,CLR,0.00,VWS V14.01,2013-09-24 11:33:00,
2013-09-24 07:38:00,42.6,41.3,30.09,SSE,148,0.0,0.0,95,0.00,,CLR,0.00,VWS V14.01,2013-09-24 11:38:00,
2013-09-24 07:43:00,42.8,41.2,30.09,ESE,106,0.0,0.0,94,0.00,,CLR,0.00,VWS V14.01,2013-09-24 11:43:00,
2013-09-24 07:48:00,43.5,42.2,30.09,ESE,106,0.0,0.0,95,0.00,,CLR,0.00,VWS V14.01,2013-09-24 11:48:00,
2013-09-24 07:53:00,44.1,42.5,30.09,NNW,328,0.0,0.0,94,0.00,,CLR,0.00,VWS V14.01,2013-09-24 11:53:00,
2013-09-24 07:58:00,44.7,42.8,30.08,WNW,297,0.0,0.0,93,0.00,,CLR,0.00,VWS V14.01,2013-09-24 11:58:00,
2013-09-24 08:03:00,45.2,42.7,30.09,WNW,297,0.0,0.0,91,0.00,,CLR,0.00,VWS V14.01,2013-09-24 12:03:00,
2013-09-24 08:08:00,45.4,42.9,30.09,NW,308,0.0,0.0,91,0.00,,CLR,0.00,VWS V14.01,2013-09-24 12:08:00,
2013-09-24 08:13:00,46.0,43.5,30.09,SW,222,0.0,0.0,91,0.00,,CLR,0.00,VWS V14.01,2013-09-24 12:13:00,
2013-09-24 08:18:00,46.5,43.7,30.09,West,267,0.0,0.0,90,0.00,,CLR,0.00,VWS V14.01,2013-09-24 12:18:00,
2013-09-24 08:23:00,46.9,44.1,30.08,West,266,0.0,0.0,90,0.00,,CLR,0.00,VWS V14.01,2013-09-24 12:23:00,
2013-09-24 08:29:00,47.4,44.6,30.08,WNW,285,0.0,0.0,90,0.00,,CLR,0.00,VWS V14.01,2013-09-24 12:29:00,
2013-09-24 08:34:00,47.8,44.4,30.09,West,270,0.0,0.0,88,0.00,,CLR,0.00,VWS V14.01,2013-09-24 12:34:00,
2013-09-24 08:39:00,48.1,44.7,30.08,WNW,295,0.0,3.0,88,0.00,,CLR,0.00,VWS V14.01,2013-09-24 12:39:00,
2013-09-24 08:44:00,48.3,44.6,30.08,NW,310,1.0,3.0,87,0.00,,CLR,0.00,VWS V14.01,2013-09-24 12:44:00,
2013-09-24 08:49:00,48.7,44.7,30.08,NW,311,0.0,4.0,86,0.00,,CLR,0.00,VWS V14.01,2013-09-24 12:49:00,
2013-09-24 08:54:00,48.8,44.5,30.08,WNW,294,0.0,5.0,85,0.00,,CLR,0.00,VWS V14.01,2013-09-24 12:54:00,
2013-09-24 08:59:00,49.1,44.8,30.08,NNE,20,0.0,4.0,85,0.00,,CLR,0.00,VWS V14.01,2013-09-24 12:59:00,
2013-09-24 09:04:00,49.5,44.9,30.08,WNW,297,2.0,3.0,84,0.00,,CLR,0.00,VWS V14.01,2013-09-24 13:04:00,
2013-09-24 09:09:00,49.8,45.5,30.08,West,262,0.0,2.0,85,0.00,,CLR,0.00,VWS V14.01,2013-09-24 13:09:00,
2013-09-24 09:14:00,50.2,45.6,30.08,WSW,255,0.0,0.0,84,0.00,,CLR,0.00,VWS V14.01,2013-09-24 13:14:00,
2013-09-24 09:19:00,50.4,45.4,30.08,SW,235,0.0,2.0,83,0.00,,CLR,0.00,VWS V14.01,2013-09-24 13:19:00,
2013-09-24 09:24:00,50.8,45.8,30.08,WNW,298,0.0,1.0,83,0.00,,CLR,0.00,VWS V14.01,2013-09-24 13:24:00,
2013-09-24 09:30:00,50.9,45.3,30.08,WNW,291,1.0,4.0,81,0.00,,CLR,0.00,VWS V14.01,2013-09-24 13:30:00,
2013-09-24 09:35:00,51.2,45.9,30.08,WNW,294,0.0,1.0,82,0.00,,CLR,0.00,VWS V14.01,2013-09-24 13:35:00,
2013-09-24 09:40:00,51.4,45.8,30.08,WNW,293,0.0,3.0,81,0.00,,CLR,0.00,VWS V14.01,2013-09-24 13:40:00,
2013-09-24 09:45:00,51.8,46.5,30.08,WSW,246,0.0,1.0,82,0.00,,CLR,0.00,VWS V14.01,2013-09-24 13:45:00,
2013-09-24 09:50:00,51.9,45.6,30.07,WNW,283,0.0,7.0,79,0.00,,CLR,0.00,VWS V14.01,2013-09-24 13:50:00,
2013-09-24 09:55:00,52.2,46.5,30.08,North,356,1.0,4.0,81,0.00,,CLR,0.00,VWS V14.01,2013-09-24 13:55:00,
2013-09-24 10:00:00,52.6,46.3,30.08,WSW,253,0.0,3.0,79,0.00,,CLR,0.00,VWS V14.01,2013-09-24 14:00:00,
2013-09-24 10:05:00,53.1,47.1,30.08,West,278,0.0,1.0,80,0.00,,CLR,0.00,VWS V14.01,2013-09-24 14:05:00,
2013-09-24 10:10:00,53.2,47.2,30.08,WNW,283,0.0,7.0,80,0.00,,CLR,0.00,VWS V14.01,2013-09-24 14:10:00,
2013-09-24 10:15:00,53.5,47.2,30.08,West,273,1.0,1.0,79,0.00,,CLR,0.00,VWS V14.01,2013-09-24 14:15:00,
2013-09-24 10:20:00,53.9,47.5,30.07,NW,319,0.0,5.0,79,0.00,,CLR,0.00,VWS V14.01,2013-09-24 14:20:00,
2013-09-24 10:25:00,54.0,47.3,30.07,WSW,255,0.0,4.0,78,0.00,,CLR,0.00,VWS V14.01,2013-09-24 14:25:00,
2013-09-24 10:30:00,54.6,47.5,30.07,WNW,296,3.0,6.0,77,0.00,,CLR,0.00,VWS V14.01,2013-09-24 14:30:00,
2013-09-24 10:35:00,54.8,47.7,30.06,West,260,0.0,7.0,77,0.00,,CLR,0.00,VWS V14.01,2013-09-24 14:35:00,
2013-09-24 10:40:00,54.9,47.5,30.07,North,9,0.0,6.0,76,0.00,,CLR,0.00,VWS V14.01,2013-09-24 14:40:00,
2013-09-24 10:45:00,55.1,47.7,30.06,NW,312,4.0,8.0,76,0.00,,CLR,0.00,VWS V14.01,2013-09-24 14:45:00,
2013-09-24 10:50:00,55.3,47.9,30.06,NNW,341,0.0,1.0,76,0.00,,CLR,0.00,VWS V14.01,2013-09-24 14:50:00,
2013-09-24 10:55:00,56.0,48.9,30.06,NNW,337,5.0,7.0,77,0.00,,CLR,0.00,VWS V14.01,2013-09-24 14:55:00,
2013-09-24 11:00:00,56.2,48.8,30.06,NNE,19,0.0,0.0,76,0.00,,CLR,0.00,VWS V14.01,2013-09-24 15:00:00,
2013-09-24 11:05:00,56.9,48.7,30.06,WNW,285,1.0,4.0,74,0.00,,CLR,0.00,VWS V14.01,2013-09-24 15:05:00,
2013-09-24 11:10:00,57.2,49.0,30.06,West,266,0.0,1.0,74,0.00,,CLR,0.00,VWS V14.01,2013-09-24 15:10:00,
2013-09-24 11:15:00,57.4,49.2,30.05,NNW,335,0.0,0.0,74,0.00,,CLR,0.00,VWS V14.01,2013-09-24 15:15:00,
2013-09-24 11:20:00,57.7,49.5,30.05,West,277,4.0,6.0,74,0.00,,CLR,0.00,VWS V14.01,2013-09-24 15:20:00,
2013-09-24 11:25:00,57.7,49.1,30.05,North,350,1.0,3.0,73,0.00,,CLR,0.00,VWS V14.01,2013-09-24 15:25:00,
2013-09-24 11:30:00,58.3,49.3,30.05,West,281,1.0,5.0,72,0.00,,CLR,0.00,VWS V14.01,2013-09-24 15:30:00,
2013-09-24 11:35:00,58.6,49.6,30.04,North,8,7.0,7.0,72,0.00,,CLR,0.00,VWS V14.01,2013-09-24 15:35:00,
2013-09-24 11:41:00,59.3,50.3,30.04,NW,304,4.0,5.0,72,0.00,,CLR,0.00,VWS V14.01,2013-09-24 15:41:00,
2013-09-24 11:46:00,59.0,49.6,30.04,WNW,287,1.0,2.0,71,0.00,,CLR,0.00,VWS V14.01,2013-09-24 15:46:00,
2013-09-24 11:51:00,59.3,49.9,30.04,WNW,293,0.0,1.0,71,0.00,,CLR,0.00,VWS V14.01,2013-09-24 15:51:00,
2013-09-24 11:56:00,59.7,49.5,30.03,NNW,335,0.0,1.0,69,0.00,,CLR,0.00,VWS V14.01,2013-09-24 15:56:00,
2013-09-24 12:01:00,60.7,50.5,30.03,WNW,300,0.0,4.0,69,0.00,,CLR,0.00,VWS V14.01,2013-09-24 16:01:00,
2013-09-24 12:06:00,61.0,50.8,30.03,NW,305,3.0,5.0,69,0.00,,CLR,0.00,VWS V14.01,2013-09-24 16:06:00,
2013-09-24 12:11:00,61.3,51.1,30.02,WNW,287,0.0,2.0,69,0.00,,CLR,0.00,VWS V14.01,2013-09-24 16:11:00,
2013-09-24 12:16:00,61.7,50.6,30.02,South,179,0.0,1.0,67,0.00,,CLR,0.00,VWS V14.01,2013-09-24 16:16:00,
2013-09-24 12:21:00,61.7,50.6,30.02,West,274,0.0,1.0,67,0.00,,CLR,0.00,VWS V14.01,2013-09-24 16:21:00,
2013-09-24 12:26:00,61.9,51.2,30.02,NW,308,1.0,3.0,68,0.00,,CLR,0.00,VWS V14.01,2013-09-24 16:26:00,
2013-09-24 12:31:00,62.4,50.9,30.02,NW,314,0.0,3.0,66,0.00,,CLR,0.00,VWS V14.01,2013-09-24 16:31:00,
2013-09-24 12:36:00,62.8,50.9,30.02,WNW,300,7.0,7.0,65,0.00,,CLR,0.00,VWS V14.01,2013-09-24 16:36:00,
2013-09-24 12:42:00,62.6,49.8,30.01,West,276,1.0,7.0,63,0.00,,CLR,0.00,VWS V14.01,2013-09-24 16:42:00,
2013-09-24 12:47:00,63.0,48.9,30.01,NNE,21,0.0,7.0,60,0.00,,CLR,0.00,VWS V14.01,2013-09-24 16:47:00,
2013-09-24 12:52:00,63.6,49.5,30.01,West,263,3.0,9.0,60,0.00,,CLR,0.00,VWS V14.01,2013-09-24 16:52:00,
2013-09-24 12:57:00,63.8,49.2,30.01,WNW,290,8.0,8.0,59,0.00,,CLR,0.00,VWS V14.01,2013-09-24 16:57:00,
2013-09-24 13:02:00,64.0,48.5,30.00,NW,317,3.0,6.0,57,0.00,,CLR,0.00,VWS V14.01,2013-09-24 17:02:00,
2013-09-24 13:07:00,64.1,47.6,30.00,NNW,338,0.0,4.0,55,0.00,,CLR,0.00,VWS V14.01,2013-09-24 17:07:00,
2013-09-24 13:12:00,65.1,49.5,30.00,NNW,328,3.0,8.0,57,0.00,,CLR,0.00,VWS V14.01,2013-09-24 17:12:00,
2013-09-24 13:17:00,64.7,48.2,30.00,NW,321,6.0,6.0,55,0.00,,CLR,0.00,VWS V14.01,2013-09-24 17:17:00,
2013-09-24 13:22:00,64.6,48.1,29.99,WNW,300,0.0,7.0,55,0.00,,CLR,0.00,VWS V14.01,2013-09-24 17:22:00,
2013-09-24 13:27:00,65.2,49.1,29.99,WNW,295,0.0,4.0,56,0.00,,CLR,0.00,VWS V14.01,2013-09-24 17:27:00,
2013-09-24 13:32:00,65.8,49.7,29.99,WNW,290,1.0,7.0,56,0.00,,CLR,0.00,VWS V14.01,2013-09-24 17:32:00,
2013-09-24 13:37:00,65.6,49.0,29.99,NW,317,0.0,7.0,55,0.00,,CLR,0.00,VWS V14.01,2013-09-24 17:37:00,
2013-09-24 13:43:00,66.4,50.7,29.98,NW,316,3.0,3.0,57,0.00,,CLR,0.00,VWS V14.01,2013-09-24 17:43:00,
2013-09-24 13:48:00,66.4,49.8,29.98,West,266,1.0,9.0,55,0.00,,CLR,0.00,VWS V14.01,2013-09-24 17:48:00,
2013-09-24 13:53:00,66.3,49.7,29.98,WNW,291,3.0,4.0,55,0.00,,CLR,0.00,VWS V14.01,2013-09-24 17:53:00,
2013-09-24 13:58:00,66.4,50.7,29.97,WNW,283,1.0,5.0,57,0.00,,CLR,0.00,VWS V14.01,2013-09-24 17:58:00,
2013-09-24 14:03:00,67.1,50.4,29.97,WNW,297,1.0,1.0,55,0.00,,CLR,0.00,VWS V14.01,2013-09-24 18:03:00,
2013-09-24 14:08:00,67.4,50.2,29.97,WNW,296,7.0,8.0,54,0.00,,CLR,0.00,VWS V14.01,2013-09-24 18:08:00,
2013-09-24 14:13:00,67.3,51.1,29.97,West,280,2.0,3.0,56,0.00,,CLR,0.00,VWS V14.01,2013-09-24 18:13:00,
2013-09-24 14:18:00,67.5,49.3,29.97,NW,311,0.0,7.0,52,0.00,,CLR,0.00,VWS V14.01,2013-09-24 18:18:00,
2013-09-24 14:23:00,67.9,50.2,29.96,West,264,0.0,2.0,53,0.00,,CLR,0.00,VWS V14.01,2013-09-24 18:23:00,
2013-09-24 14:28:00,68.0,49.7,29.96,NW,307,0.0,5.0,52,0.00,,CLR,0.00,VWS V14.01,2013-09-24 18:28:00,
2013-09-24 14:33:00,68.4,50.6,29.96,NNW,340,0.0,4.0,53,0.00,,CLR,0.00,VWS V14.01,2013-09-24 18:33:00,
2013-09-24 14:38:00,68.6,50.8,29.96,WNW,293,2.0,4.0,53,0.00,,CLR,0.00,VWS V14.01,2013-09-24 18:38:00,
2013-09-24 14:43:00,68.6,50.8,29.96,WNW,297,0.0,4.0,53,0.00,,CLR,0.00,VWS V14.01,2013-09-24 18:43:00,
2013-09-24 14:49:00,68.3,51.0,29.95,WNW,293,0.0,7.0,54,0.00,,CLR,0.00,VWS V14.01,2013-09-24 18:49:00,
2013-09-24 14:54:00,68.7,50.9,29.95,ESE,117,0.0,6.0,53,0.00,,CLR,0.00,VWS V14.01,2013-09-24 18:54:00,
2013-09-24 14:59:00,70.0,51.6,29.95,NW,321,2.0,2.0,52,0.00,,CLR,0.00,VWS V14.01,2013-09-24 18:59:00,
2013-09-24 15:04:00,69.8,51.9,29.95,NW,326,1.0,3.0,53,0.00,,CLR,0.00,VWS V14.01,2013-09-24 19:04:00,
2013-09-24 15:09:00,69.5,50.6,29.95,WNW,295,6.0,6.0,51,0.00,,CLR,0.00,VWS V14.01,2013-09-24 19:09:00,
2013-09-24 15:14:00,69.2,51.4,29.94,WNW,303,2.0,5.0,53,0.00,,CLR,0.00,VWS V14.01,2013-09-24 19:14:00,
2013-09-24 15:19:00,69.4,50.5,29.94,WNW,289,0.0,6.0,51,0.00,,CLR,0.00,VWS V14.01,2013-09-24 19:19:00,
2013-09-24 15:24:00,69.2,49.8,29.94,WNW,301,0.0,6.0,50,0.00,,CLR,0.00,VWS V14.01,2013-09-24 19:24:00,
2013-09-24 15:29:00,69.4,50.5,29.94,NW,310,2.0,7.0,51,0.00,,CLR,0.00,VWS V14.01,2013-09-24 19:29:00,
2013-09-24 15:34:00,69.4,50.0,29.94,NW,311,2.0,8.0,50,0.00,,CLR,0.00,VWS V14.01,2013-09-24 19:34:00,
2013-09-24 15:39:00,69.4,49.4,29.94,NW,316,6.0,8.0,49,0.00,,CLR,0.00,VWS V14.01,2013-09-24 19:39:00,
2013-09-24 15:44:00,69.6,50.7,29.93,WNW,302,0.0,7.0,51,0.00,,CLR,0.00,VWS V14.01,2013-09-24 19:44:00,
2013-09-24 15:50:00,69.9,50.4,29.93,WNW,283,1.0,7.0,50,0.00,,CLR,0.00,VWS V14.01,2013-09-24 19:50:00,
2013-09-24 15:55:00,69.9,50.4,29.93,NW,314,0.0,6.0,50,0.00,,CLR,0.00,VWS V14.01,2013-09-24 19:55:00,
2013-09-24 16:00:00,69.8,50.3,29.93,West,271,5.0,9.0,50,0.00,,CLR,0.00,VWS V14.01,2013-09-24 20:00:00,
2013-09-24 16:05:00,69.9,50.4,29.93,NW,305,6.0,6.0,50,0.00,,CLR,0.00,VWS V14.01,2013-09-24 20:05:00,
2013-09-24 16:10:00,70.2,51.2,29.93,WNW,293,0.0,1.0,51,0.00,,CLR,0.00,VWS V14.01,2013-09-24 20:10:00,
2013-09-24 16:15:00,70.6,50.0,29.93,West,280,3.0,6.0,48,0.00,,CLR,0.00,VWS V14.01,2013-09-24 20:15:00,
2013-09-24 16:20:00,70.1,49.5,29.93,NNW,338,1.0,5.0,48,0.00,,CLR,0.00,VWS V14.01,2013-09-24 20:20:00,
2013-09-24 16:25:00,70.0,49.4,29.93,NW,318,3.0,3.0,48,0.00,,CLR,0.00,VWS V14.01,2013-09-24 20:25:00,
2013-09-24 16:30:00,70.1,49.0,29.93,WNW,299,1.0,1.0,47,0.00,,CLR,0.00,VWS V14.01,2013-09-24 20:30:00,
2013-09-24 16:35:00,70.2,49.0,29.93,NNW,328,0.0,5.0,47,0.00,,CLR,0.00,VWS V14.01,2013-09-24 20:35:00,
2013-09-24 16:40:00,70.7,49.5,29.93,NW,318,1.0,3.0,47,0.00,,CLR,0.00,VWS V14.01,2013-09-24 20:40:00,
2013-09-24 16:45:00,71.0,50.3,29.93,WNW,303,1.0,6.0,48,0.00,,CLR,0.00,VWS V14.01,2013-09-24 20:45:00,
2013-09-24 16:50:00,70.8,49.6,29.93,NW,310,2.0,5.0,47,0.00,,CLR,0.00,VWS V14.01,2013-09-24 20:50:00,
2013-09-24 16:55:00,70.6,50.5,29.92,West,280,6.0,7.0,49,0.00,,CLR,0.00,VWS V14.01,2013-09-24 20:55:00,
2013-09-24 17:00:00,70.6,49.4,29.92,NNW,328,6.0,6.0,47,0.00,,CLR,0.00,VWS V14.01,2013-09-24 21:00:00,
2013-09-24 17:06:00,70.6,50.0,29.92,ENE,71,3.0,3.0,48,0.00,,CLR,0.00,VWS V14.01,2013-09-24 21:06:00,
2013-09-24 17:11:00,70.5,49.3,29.93,NW,308,2.0,2.0,47,0.00,,CLR,0.00,VWS V14.01,2013-09-24 21:11:00,
2013-09-24 17:16:00,70.3,49.7,29.93,NW,312,0.0,3.0,48,0.00,,CLR,0.00,VWS V14.01,2013-09-24 21:16:00,
2013-09-24 17:21:00,70.2,49.6,29.93,WNW,294,0.0,4.0,48,0.00,,CLR,0.00,VWS V14.01,2013-09-24 21:21:00,
2013-09-24 17:26:00,70.3,49.7,29.93,NW,308,0.0,3.0,48,0.00,,CLR,0.00,VWS V14.01,2013-09-24 21:26:00,
2013-09-24 17:31:00,70.1,50.1,29.93,West,264,0.0,4.0,49,0.00,,CLR,0.00,VWS V14.01,2013-09-24 21:31:00,
2013-09-24 17:36:00,69.9,49.3,29.93,NW,314,1.0,5.0,48,0.00,,CLR,0.00,VWS V14.01,2013-09-24 21:36:00,
2013-09-24 17:41:00,69.9,49.3,29.93,NW,307,1.0,2.0,48,0.00,,CLR,0.00,VWS V14.01,2013-09-24 21:41:00,
2013-09-24 17:46:00,69.7,49.7,29.93,WNW,301,3.0,6.0,49,0.00,,CLR,0.00,VWS V14.01,2013-09-24 21:46:00,
2013-09-24 17:51:00,69.6,50.2,29.93,NW,316,4.0,4.0,50,0.00,,CLR,0.00,VWS V14.01,2013-09-24 21:51:00,
2013-09-24 17:56:00,69.1,49.7,29.93,WNW,302,1.0,6.0,50,0.00,,CLR,0.00,VWS V14.01,2013-09-24 21:56:00,
2013-09-24 18:01:00,69.2,49.8,29.93,NW,318,0.0,5.0,50,0.00,,CLR,0.00,VWS V14.01,2013-09-24 22:01:00,
2013-09-24 18:07:00,69.1,50.2,29.93,NW,318,0.0,2.0,51,0.00,,CLR,0.00,VWS V14.01,2013-09-24 22:07:00,
2013-09-24 18:12:00,68.9,49.5,29.92,West,274,3.0,6.0,50,0.00,,CLR,0.00,VWS V14.01,2013-09-24 22:12:00,
2013-09-24 18:17:00,68.6,49.8,29.92,NW,305,1.0,3.0,51,0.00,,CLR,0.00,VWS V14.01,2013-09-24 22:17:00,
2013-09-24 18:22:00,68.5,50.2,29.93,NNW,340,0.0,1.0,52,0.00,,CLR,0.00,VWS V14.01,2013-09-24 22:22:00,
2013-09-24 18:27:00,67.9,50.2,29.93,NW,314,0.0,2.0,53,0.00,,CLR,0.00,VWS V14.01,2013-09-24 22:27:00,
2013-09-24 18:32:00,67.2,50.0,29.93,NW,307,0.0,1.0,54,0.00,,CLR,0.00,VWS V14.01,2013-09-24 22:32:00,
2013-09-24 18:37:00,66.7,50.0,29.93,NW,308,0.0,1.0,55,0.00,,CLR,0.00,VWS V14.01,2013-09-24 22:37:00,
2013-09-24 18:42:00,66.0,50.3,29.93,West,269,0.0,1.0,57,0.00,,CLR,0.00,VWS V14.01,2013-09-24 22:42:00,
2013-09-24 18:47:00,65.4,49.8,29.92,West,271,0.0,0.0,57,0.00,,CLR,0.00,VWS V14.01,2013-09-24 22:47:00,
2013-09-24 18:52:00,64.9,49.3,29.92,WNW,302,0.0,1.0,57,0.00,,CLR,0.00,VWS V14.01,2013-09-24 22:52:00,
2013-09-24 19:02:00,63.9,49.8,29.92,West,269,0.0,0.0,60,0.00,,CLR,0.00,VWS V14.01,2013-09-24 23:02:00,
2013-09-24 19:08:00,62.2,52.7,29.92,SE,136,0.0,1.0,71,0.00,,CLR,0.00,VWS V14.01,2013-09-24 23:08:00,
2013-09-24 19:13:00,59.7,52.1,29.92,ESE,120,0.0,1.0,76,0.00,,CLR,0.00,VWS V14.01,2013-09-24 23:13:00,
2013-09-24 19:18:00,58.7,51.5,29.92,ESE,117,0.0,0.0,77,0.00,,CLR,0.00,VWS V14.01,2013-09-24 23:18:00,
2013-09-24 19:23:00,58.7,50.8,29.92,ESE,117,0.0,0.0,75,0.00,,CLR,0.00,VWS V14.01,2013-09-24 23:23:00,
2013-09-24 19:28:00,58.6,50.7,29.93,ESE,117,0.0,0.0,75,0.00,,CLR,0.00,VWS V14.01,2013-09-24 23:28:00,
2013-09-24 19:33:00,58.4,50.5,29.92,ESE,117,0.0,0.0,75,0.00,,CLR,0.00,VWS V14.01,2013-09-24 23:33:00,
2013-09-24 19:38:00,58.8,50.2,29.92,ESE,117,0.0,0.0,73,0.00,,CLR,0.00,VWS V14.01,2013-09-24 23:38:00,
2013-09-24 19:43:00,58.8,50.2,29.92,ESE,117,0.0,0.0,73,0.00,,CLR,0.00,VWS V14.01,2013-09-24 23:43:00,
2013-09-24 19:48:00,57.6,50.1,29.93,East,97,0.0,0.0,76,0.00,,CLR,0.00,VWS V14.01,2013-09-24 23:48:00,
2013-09-24 19:53:00,57.0,49.5,29.93,East,91,0.0,0.0,76,0.00,,CLR,0.00,VWS V14.01,2013-09-24 23:53:00,
2013-09-24 19:59:00,57.4,49.5,29.93,East,92,0.0,0.0,75,0.00,,CLR,0.00,VWS V14.01,2013-09-24 23:59:00,
2013-09-24 20:04:00,57.5,49.7,29.93,East,91,0.0,0.0,75,0.00,,CLR,0.00,VWS V14.01,2013-09-25 00:04:00,
2013-09-24 20:09:00,56.4,50.0,29.93,East,94,0.0,0.0,79,0.00,,CLR,0.00,VWS V14.01,2013-09-25 00:09:00,
2013-09-24 20:14:00,55.3,49.9,29.93,East,94,0.0,0.0,82,0.00,,CLR,0.00,VWS V14.01,2013-09-25 00:14:00,
2013-09-24 20:19:00,55.0,49.6,29.93,East,97,0.0,0.0,82,0.00,,CLR,0.00,VWS V14.01,2013-09-25 00:19:00,
2013-09-24 20:24:00,55.1,49.4,29.93,East,97,0.0,1.0,81,0.00,,CLR,0.00,VWS V14.01,2013-09-25 00:24:00,
2013-09-24 20:29:00,55.0,49.0,29.93,East,98,0.0,0.0,80,0.00,,CLR,0.00,VWS V14.01,2013-09-25 00:29:00,
2013-09-24 20:34:00,55.7,49.0,29.93,East,97,0.0,0.0,78,0.00,,CLR,0.00,VWS V14.01,2013-09-25 00:34:00,
2013-09-24 20:39:00,55.5,48.8,29.93,East,96,0.0,0.0,78,0.00,,CLR,0.00,VWS V14.01,2013-09-25 00:39:00,
2013-09-24 20:45:00,55.1,48.7,29.94,East,94,0.0,0.0,79,0.00,,CLR,0.00,VWS V14.01,2013-09-25 00:45:00,
2013-09-24 20:50:00,55.2,48.5,29.93,East,92,0.0,0.0,78,0.00,,CLR,0.00,VWS V14.01,2013-09-25 00:50:00,
2013-09-24 20:55:00,55.6,48.5,29.93,East,92,0.0,0.0,77,0.00,,CLR,0.00,VWS V14.01,2013-09-25 00:55:00,
2013-09-24 21:00:00,56.1,48.3,29.93,East,91,0.0,0.0,75,0.00,,CLR,0.00,VWS V14.01,2013-09-25 01:00:00,
2013-09-24 21:05:00,57.0,48.4,29.93,East,89,0.0,1.0,73,0.00,,CLR,0.00,VWS V14.01,2013-09-25 01:05:00,
2013-09-24 21:10:00,57.1,48.2,29.93,East,87,0.0,0.0,72,0.00,,CLR,0.00,VWS V14.01,2013-09-25 01:10:00,
2013-09-24 21:15:00,56.5,48.7,29.93,East,88,0.0,0.0,75,0.00,,CLR,0.00,VWS V14.01,2013-09-25 01:15:00,
2013-09-24 21:20:00,55.5,48.4,29.93,East,89,0.0,0.0,77,0.00,,CLR,0.00,VWS V14.01,2013-09-25 01:20:00,
2013-09-24 21:25:00,54.3,48.3,29.93,East,101,0.0,0.0,80,0.00,,CLR,0.00,VWS V14.01,2013-09-25 01:25:00,
2013-09-24 21:30:00,53.5,48.2,29.94,East,101,0.0,0.0,82,0.00,,CLR,0.00,VWS V14.01,2013-09-25 01:30:00,
2013-09-24 21:35:00,53.8,47.8,29.94,East,101,0.0,0.0,80,0.00,,CLR,0.00,VWS V14.01,2013-09-25 01:35:00,
2013-09-24 21:40:00,54.2,47.8,29.94,East,101,0.0,0.0,79,0.00,,CLR,0.00,VWS V14.01,2013-09-25 01:40:00,
2013-09-24 21:45:00,54.0,48.0,29.94,East,101,0.0,0.0,80,0.00,,CLR,0.00,VWS V14.01,2013-09-25 01:45:00,
2013-09-24 21:50:00,53.0,47.7,29.94,East,101,0.0,0.0,82,0.00,,CLR,0.00,VWS V14.01,2013-09-25 01:50:00,
2013-09-24 21:56:00,52.1,47.7,29.94,East,101,0.0,0.0,85,0.00,,CLR,0.00,VWS V14.01,2013-09-25 01:56:00,
2013-09-24 22:01:00,51.4,47.7,29.94,East,101,0.0,0.0,87,0.00,,CLR,0.00,VWS V14.01,2013-09-25 02:01:00,
2013-09-24 22:06:00,51.3,47.6,29.94,East,101,0.0,0.0,87,0.00,,CLR,0.00,VWS V14.01,2013-09-25 02:06:00,
2013-09-24 22:11:00,51.6,47.9,29.94,East,100,0.0,0.0,87,0.00,,CLR,0.00,VWS V14.01,2013-09-25 02:11:00,
2013-09-24 22:16:00,51.9,47.8,29.94,East,100,0.0,0.0,86,0.00,,CLR,0.00,VWS V14.01,2013-09-25 02:16:00,
2013-09-24 22:21:00,51.6,47.6,29.93,East,100,0.0,0.0,86,0.00,,CLR,0.00,VWS V14.01,2013-09-25 02:21:00,
2013-09-24 22:26:00,51.1,47.1,29.93,East,101,0.0,0.0,86,0.00,,CLR,0.00,VWS V14.01,2013-09-25 02:26:00,
2013-09-24 22:31:00,50.4,47.0,29.93,East,101,0.0,0.0,88,0.00,,CLR,0.00,VWS V14.01,2013-09-25 02:31:00,
2013-09-24 22:36:00,49.9,46.8,29.94,East,101,0.0,0.0,89,0.00,,CLR,0.00,VWS V14.01,2013-09-25 02:36:00,
2013-09-24 22:41:00,49.4,46.6,29.94,East,101,0.0,0.0,90,0.00,,CLR,0.00,VWS V14.01,2013-09-25 02:41:00,
2013-09-24 22:47:00,49.3,46.8,29.94,East,101,0.0,0.0,91,0.00,,CLR,0.00,VWS V14.01,2013-09-25 02:47:00,
2013-09-24 22:52:00,49.9,47.7,29.94,East,94,0.0,0.0,92,0.00,,CLR,0.00,VWS V14.01,2013-09-25 02:52:00,
2013-09-24 22:57:00,51.0,48.2,29.94,East,93,0.0,0.0,90,0.00,,CLR,0.00,VWS V14.01,2013-09-25 02:57:00,
2013-09-24 23:02:00,52.3,48.5,29.93,East,90,0.0,0.0,87,0.00,,CLR,0.00,VWS V14.01,2013-09-25 03:02:00,
2013-09-24 23:07:00,53.1,48.4,29.93,ENE,65,0.0,1.0,84,0.00,,CLR,0.00,VWS V14.01,2013-09-25 03:07:00,
2013-09-24 23:12:00,53.7,48.3,29.93,ENE,62,0.0,0.0,82,0.00,,CLR,0.00,VWS V14.01,2013-09-25 03:12:00,
2013-09-24 23:17:00,54.2,48.2,29.93,ENE,62,0.0,0.0,80,0.00,,CLR,0.00,VWS V14.01,2013-09-25 03:17:00,
2013-09-24 23:22:00,54.9,48.2,29.93,ENE,62,0.0,0.0,78,0.00,,CLR,0.00,VWS V14.01,2013-09-25 03:22:00,
2013-09-24 23:27:00,55.2,48.1,29.93,ENE,62,0.0,0.0,77,0.00,,CLR,0.00,VWS V14.01,2013-09-25 03:27:00,
2013-09-24 23:32:00,54.9,47.8,29.92,ENE,63,0.0,0.0,77,0.00,,CLR,0.00,VWS V14.01,2013-09-25 03:32:00,
2013-09-24 23:37:00,53.6,47.6,29.92,West,278,0.0,0.0,80,0.00,,CLR,0.00,VWS V14.01,2013-09-25 03:37:00,
2013-09-24 23:42:00,51.3,47.0,29.92,West,280,0.0,0.0,85,0.00,,CLR,0.00,VWS V14.01,2013-09-25 03:42:00,
2013-09-24 23:48:00,50.0,46.3,29.92,West,280,0.0,0.0,87,0.00,,CLR,0.00,VWS V14.01,2013-09-25 03:48:00,
2013-09-24 23:53:00,49.3,46.5,29.92,SE,131,0.0,0.0,90,0.00,,CLR,0.00,VWS V14.01,2013-09-25 03:53:00,
2013-09-24 23:58:00,49.1,46.6,29.92,ESE,123,0.0,0.0,91,0.00,,CLR,0.00,VWS V14.01,2013-09-25 03:58:00,